Time;durP1;ratioP1;P1;durP2;ratioP2;P2;SDS_P1;SDS_P2;PMS_P1;PMS_P2;Temp;Humidity;BMP_temperature;BMP_pressure;BME280_temperature;BME280_humidity;BME280_pressure;Samples;Min_cycle;Max_cycle;Signal;HPM_P1;HPM_P2
2021/10/23 18:17:22;;;;;;;21.23;9.75;;;;;;;8.13;95.62;94576.34;5020756;27;20499;-74
2021/10/23 18:19:51;;;;;;;13.30;7.40;;;;;;;8.51;93.34;94567.50;5003221;28;20052;-75
2021/10/23 18:22:18;;;;;;;13.13;7.32;;;;;;;8.83;91.92;94579.34;4999944;28;20046;-75
2021/10/23 18:24:44;;;;;;;15.63;7.40;;;;;;;9.01;91.08;94582.06;5005718;28;20076;-76
2021/10/23 18:27:10;;;;;;;17.30;8.70;;;;;;;9.34;89.29;94595.50;5009103;28;20034;-73
2021/10/23 18:29:35;;;;;;;12.10;7.35;;;;;;;9.52;87.80;94596.56;5003628;28;20600;-74
2021/10/23 18:32:02;;;;;;;15.02;8.85;;;;;;;9.72;86.87;94590.97;5011539;28;20512;-75
2021/10/23 18:34:28;;;;;;;10.70;6.28;;;;;;;9.91;85.59;94588.28;5004424;28;20053;-75
2021/10/23 18:36:54;;;;;;;6.95;4.22;;;;;;;9.95;83.84;94576.78;5003248;28;20053;-75
2021/10/23 18:39:19;;;;;;;9.32;5.10;;;;;;;10.06;83.24;94583.53;5006642;28;20033;-75
2021/10/23 18:41:44;;;;;;;9.88;5.60;;;;;;;10.12;82.81;94587.66;5004158;28;20535;-75
2021/10/23 18:44:10;;;;;;;8.15;5.95;;;;;;;10.22;82.47;94584.81;5011209;28;20104;-76
2021/10/23 18:46:35;;;;;;;11.10;6.53;;;;;;;10.07;82.46;94561.19;5001325;28;20026;-76
2021/10/23 18:49:01;;;;;;;8.32;5.82;;;;;;;10.32;81.34;94584.66;5003781;28;20084;-75
2021/10/23 18:51:27;;;;;;;8.05;5.68;;;;;;;10.44;80.62;94596.75;5003269;28;20429;-75
2021/10/23 18:53:52;;;;;;;9.82;7.15;;;;;;;10.51;81.00;94594.50;5000727;28;20049;-75
2021/10/23 18:56:21;;;;;;;14.55;9.60;;;;;;;10.53;80.47;94584.34;4980879;28;20093;-74
2021/10/23 18:58:49;;;;;;;9.02;6.20;;;;;;;10.54;80.08;94586.72;4971726;28;20038;-74
2021/10/23 19:01:20;;;;;;;9.57;5.53;;;;;;;10.54;78.99;94585.91;4977962;28;20039;-74
2021/10/23 19:03:46;;;;;;;8.25;5.70;;;;;;;10.43;78.29;94564.03;4977376;28;20030;-75
2021/10/23 19:06:12;;;;;;;5.90;4.30;;;;;;;10.62;77.97;94582.56;4979101;28;20034;-74
2021/10/23 19:08:50;;;;;;;5.20;3.53;;;;;;;10.59;77.21;94588.50;4983259;28;20052;-75
2021/10/23 19:11:16;;;;;;;5.07;4.55;;;;;;;10.53;76.68;94579.03;4971872;28;20050;-75
2021/10/23 19:13:41;;;;;;;6.72;4.57;;;;;;;10.55;76.32;94577.66;4977013;28;20038;-75
2021/10/23 19:16:07;;;;;;;7.53;5.70;;;;;;;10.54;77.28;94596.56;4976501;28;20483;-74
2021/10/23 19:18:32;;;;;;;7.63;5.20;;;;;;;10.56;77.33;94583.75;4977409;28;20030;-74
2021/10/23 19:20:58;;;;;;;5.28;3.97;;;;;;;10.71;75.96;94596.75;4980763;28;20161;-74
2021/10/23 19:23:23;;;;;;;6.97;4.30;;;;;;;10.63;76.46;94589.47;4976815;28;20042;-75
2021/10/23 19:25:49;;;;;;;5.88;3.95;;;;;;;10.54;76.43;94612.50;4974270;28;20046;-76
2021/10/23 19:28:14;;;;;;;7.82;4.15;;;;;;;10.47;76.62;94609.44;4967488;28;20039;-75
2021/10/23 19:30:39;;;;;;;9.02;4.57;;;;;;;10.48;77.06;94613.69;4963377;28;20119;-75
2021/10/23 19:33:06;;;;;;;7.05;4.65;;;;;;;10.44;76.79;94615.34;4965734;28;20027;-75
2021/10/23 19:35:31;;;;;;;8.13;5.35;;;;;;;10.46;76.69;94607.88;4963270;28;20501;-75
2021/10/23 19:37:57;;;;;;;8.45;5.55;;;;;;;10.53;76.52;94605.63;4963599;28;20134;-75
2021/10/23 19:40:23;;;;;;;10.60;5.90;;;;;;;10.68;75.89;94615.97;4959432;28;20097;-75
2021/10/23 19:42:48;;;;;;;8.93;4.60;;;;;;;10.73;75.15;94602.59;4964941;28;20297;-76
2021/10/23 19:45:14;;;;;;;10.32;5.85;;;;;;;10.82;75.46;94616.00;4964437;28;20022;-75
2021/10/23 19:47:41;;;;;;;9.20;5.53;;;;;;;10.84;74.52;94585.34;4963329;28;20085;-76
2021/10/23 19:50:07;;;;;;;9.55;5.97;;;;;;;10.95;73.27;94613.38;4973218;28;20405;-76
2021/10/23 19:52:33;;;;;;;9.55;6.32;;;;;;;11.03;73.41;94631.31;4969511;28;20038;-75
2021/10/23 19:54:58;;;;;;;12.93;6.45;;;;;;;11.05;73.30;94618.47;4965226;28;20046;-75
2021/10/23 19:57:27;;;;;;;10.15;5.93;;;;;;;11.23;73.00;94619.47;4965960;28;20774;-76
2021/10/23 19:59:55;;;;;;;11.23;6.13;;;;;;;11.35;72.34;94626.94;4967675;28;20417;-75
2021/10/23 20:02:20;;;;;;;10.68;6.25;;;;;;;11.51;72.00;94641.56;4954468;28;20034;-75
2021/10/23 20:04:46;;;;;;;9.55;5.70;;;;;;;11.63;71.14;94639.19;4963418;28;20042;-75
2021/10/23 20:07:11;;;;;;;8.98;6.32;;;;;;;11.71;71.12;94643.78;4969664;28;20401;-75
2021/10/23 20:09:39;;;;;;;11.90;6.65;;;;;;;11.72;69.78;94648.03;4962581;28;20034;-76
2021/10/23 20:12:04;;;;;;;11.32;5.78;;;;;;;11.64;69.71;94646.06;4970352;28;20034;-74
2021/10/23 20:14:30;;;;;;;10.93;5.55;;;;;;;11.54;69.29;94647.06;4969865;28;20062;-76
2021/10/23 20:16:56;;;;;;;8.63;5.15;;;;;;;11.55;69.04;94631.88;4963790;28;20490;-75
2021/10/23 20:19:21;;;;;;;9.23;5.57;;;;;;;11.58;69.33;94655.28;4967155;28;20042;-76
2021/10/23 20:21:47;;;;;;;11.18;6.53;;;;;;;11.73;68.86;94651.50;4963187;28;20065;-75
2021/10/23 20:24:13;;;;;;;7.95;4.38;;;;;;;11.53;67.32;94648.16;4968071;28;20035;-75
2021/10/23 20:26:38;;;;;;;8.65;4.90;;;;;;;11.26;68.03;94653.47;4961175;28;20026;-76
2021/10/23 20:29:04;;;;;;;6.15;3.72;;;;;;;11.14;67.51;94648.66;4970495;28;20066;-76
2021/10/23 20:31:30;;;;;;;10.73;5.15;;;;;;;11.06;68.51;94665.31;4964140;28;20498;-74
2021/10/23 20:33:58;;;;;;;7.53;4.85;;;;;;;10.96;68.43;94657.50;4972574;28;20055;-74
2021/10/23 20:36:25;;;;;;;7.70;4.40;;;;;;;10.77;68.51;94659.44;4965137;28;20034;-74
2021/10/23 20:38:51;;;;;;;9.45;4.28;;;;;;;10.80;68.40;94680.16;4967102;28;20035;-75
2021/10/23 20:41:18;;;;;;;8.02;4.53;;;;;;;10.55;68.51;94675.28;4961990;28;20108;-75
2021/10/23 20:43:43;;;;;;;5.88;4.65;;;;;;;10.55;69.13;94683.25;4967739;28;20093;-75
2021/10/23 20:46:08;;;;;;;5.20;3.95;;;;;;;10.53;68.78;94690.72;4969498;28;20042;-75
2021/10/23 20:48:34;;;;;;;9.23;4.05;;;;;;;10.44;68.51;94693.25;4967431;28;20380;-75
2021/10/23 20:50:59;;;;;;;8.00;4.00;;;;;;;10.55;68.03;94704.53;4966563;28;20093;-75
2021/10/23 20:53:25;;;;;;;9.60;4.70;;;;;;;10.46;68.39;94707.06;4966403;28;20117;-75
2021/10/23 20:55:50;;;;;;;7.20;4.35;;;;;;;10.55;68.08;94707.19;4967858;28;20472;-74
2021/10/23 20:58:16;;;;;;;6.70;4.15;;;;;;;10.42;67.80;94699.94;4967008;28;20444;-75
2021/10/23 21:00:41;;;;;;;8.15;4.18;;;;;;;10.27;68.01;94687.63;4963286;28;20034;-74
2021/10/23 21:03:06;;;;;;;9.13;4.82;;;;;;;10.35;67.55;94702.16;4970718;28;20030;-75
2021/10/23 21:05:32;;;;;;;7.53;4.43;;;;;;;10.20;66.94;94722.59;4962474;28;20031;-75
2021/10/23 21:07:58;;;;;;;5.90;3.75;;;;;;;10.18;66.63;94723.94;4967505;28;20091;-75
2021/10/23 21:10:25;;;;;;;6.57;3.65;;;;;;;10.01;66.99;94724.47;4962781;28;20130;-75
2021/10/23 21:12:50;;;;;;;6.22;3.83;;;;;;;10.10;67.09;94720.06;4954496;28;20042;-75
2021/10/23 21:15:16;;;;;;;5.18;3.78;;;;;;;10.11;66.66;94724.31;4960376;28;20570;-74
2021/10/23 21:17:41;;;;;;;4.85;3.33;;;;;;;9.92;66.19;94710.22;4964782;28;20130;-74
2021/10/23 21:20:07;;;;;;;5.85;3.53;;;;;;;9.97;66.26;94720.00;4967973;28;20076;-75
2021/10/23 21:22:33;;;;;;;5.28;3.60;;;;;;;9.97;66.40;94736.75;4965281;28;20039;-74
2021/10/23 21:24:58;;;;;;;4.47;3.08;;;;;;;9.98;65.98;94743.63;4968499;28;20038;-74
2021/10/23 21:27:24;;;;;;;5.05;3.38;;;;;;;9.83;65.83;94741.16;4964861;28;20081;-74
2021/10/23 21:29:50;;;;;;;4.00;2.75;;;;;;;9.58;66.55;94723.69;4961376;28;20216;-74
2021/10/23 21:32:16;;;;;;;7.60;3.83;;;;;;;9.59;67.22;94756.31;4965728;28;20425;-75
2021/10/23 21:34:41;;;;;;;5.43;2.95;;;;;;;9.22;68.42;94741.88;4964214;28;20054;-74
2021/10/23 21:37:06;;;;;;;5.32;3.33;;;;;;;9.05;68.34;94757.41;4964056;28;20050;-75
2021/10/23 21:39:32;;;;;;;3.88;2.17;;;;;;;8.90;69.67;94744.31;4956943;28;20042;-74
2021/10/23 21:41:57;;;;;;;2.42;1.98;;;;;;;8.48;70.05;94700.63;4967345;28;20118;-75
2021/10/23 21:44:23;;;;;;;3.58;2.63;;;;;;;8.51;70.66;94758.38;4964873;28;20031;-74
2021/10/23 21:46:49;;;;;;;3.05;2.28;;;;;;;8.46;71.96;94760.31;4957755;28;20044;-73
2021/10/23 21:49:14;;;;;;;3.15;2.33;;;;;;;8.30;72.19;94746.38;4965624;28;20042;-74
2021/10/23 21:51:39;;;;;;;5.38;2.40;;;;;;;7.97;74.31;94747.88;4964720;28;20085;-74
2021/10/23 21:54:05;;;;;;;3.22;2.70;;;;;;;7.99;73.50;94751.06;4962649;28;20019;-75
2021/10/23 21:56:36;;;;;;;4.30;2.65;;;;;;;8.01;74.73;94774.63;4968468;28;20035;-74
2021/10/23 21:59:03;;;;;;;6.15;2.63;;;;;;;7.89;74.29;94780.25;4966213;28;20034;-74
2021/10/23 22:01:28;;;;;;;4.13;2.47;;;;;;;7.57;74.83;94770.03;4962063;28;20042;-75
2021/10/23 22:03:55;;;;;;;2.83;2.25;;;;;;;7.67;76.17;94785.09;4959695;28;20046;-74
2021/10/23 22:06:20;;;;;;;3.70;2.03;;;;;;;7.71;75.38;94775.53;4964890;28;20107;-74
2021/10/23 22:08:46;;;;;;;6.90;2.40;;;;;;;7.86;74.53;94782.66;4960868;28;20408;-75
2021/10/23 22:11:13;;;;;;;4.95;2.13;;;;;;;7.79;75.13;94755.66;4963301;28;20085;-74
2021/10/23 22:13:39;;;;;;;3.80;2.80;;;;;;;8.08;74.97;94788.34;4966628;28;20031;-75
2021/10/23 22:16:06;;;;;;;2.72;2.38;;;;;;;8.06;74.60;94785.19;4957271;28;20050;-74
2021/10/23 22:18:32;;;;;;;5.75;2.95;;;;;;;8.02;73.02;94786.81;4967306;28;20330;-74
2021/10/23 22:20:59;;;;;;;2.70;2.20;;;;;;;7.87;73.47;94800.94;4961099;28;20507;-75
2021/10/23 22:23:26;;;;;;;2.00;1.80;;;;;;;7.78;74.24;94796.47;4968060;28;20512;-75
2021/10/23 22:25:55;;;;;;;2.38;2.03;;;;;;;7.70;74.46;94792.47;4957128;28;20189;-75
2021/10/23 22:28:24;;;;;;;2.78;2.10;;;;;;;7.53;75.07;94806.03;4964041;28;20035;-75
2021/10/23 22:30:50;;;;;;;4.05;2.10;;;;;;;7.49;74.38;94783.81;4956432;28;20205;-75
2021/10/23 22:33:15;;;;;;;4.15;2.72;;;;;;;7.57;74.37;94779.84;4969232;28;20401;-75
2021/10/23 22:35:41;;;;;;;5.00;3.05;;;;;;;7.49;73.53;94796.25;4963449;28;20037;-75
2021/10/23 22:38:06;;;;;;;2.20;1.80;;;;;;;7.50;73.62;94798.63;4966728;28;20438;-75
2021/10/23 22:40:32;;;;;;;2.90;2.05;;;;;;;7.58;74.21;94787.47;4965049;28;20456;-75
2021/10/23 22:42:57;;;;;;;6.22;1.92;;;;;;;7.74;72.84;94806.78;4963930;28;20371;-75
2021/10/23 22:45:23;;;;;;;2.28;1.83;;;;;;;7.63;72.02;94795.41;4962646;28;20065;-75
2021/10/23 22:47:48;;;;;;;2.53;2.22;;;;;;;7.46;71.64;94779.06;4963987;28;21218;-74
2021/10/23 22:50:16;;;;;;;2.28;1.70;;;;;;;7.22;73.41;94786.81;4965422;28;20069;-74
2021/10/23 22:52:42;;;;;;;2.95;2.03;;;;;;;7.23;74.04;94790.25;4959473;28;20034;-74
2021/10/23 22:55:08;;;;;;;3.00;2.00;;;;;;;7.43;73.36;94814.03;4966384;28;22657;-74
2021/10/23 22:57:33;;;;;;;2.97;1.60;;;;;;;7.28;74.24;94820.16;4966709;28;20030;-74
2021/10/23 22:59:59;;;;;;;2.85;1.63;;;;;;;7.17;74.17;94800.03;4958660;28;20038;-75
2021/10/23 23:02:24;;;;;;;2.17;1.55;;;;;;;7.59;73.68;94820.84;4961348;28;20046;-74
2021/10/23 23:04:50;;;;;;;1.70;1.60;;;;;;;7.60;73.02;94806.53;4962800;28;20322;-74
2021/10/23 23:07:15;;;;;;;1.65;1.33;;;;;;;7.78;72.70;94820.31;4968527;28;20748;-73
2021/10/23 23:09:41;;;;;;;1.85;1.40;;;;;;;7.80;71.87;94831.41;4972087;28;20784;-74
2021/10/23 23:12:07;;;;;;;1.92;1.55;;;;;;;7.85;71.73;94820.78;4963919;28;20140;-74
2021/10/23 23:14:35;;;;;;;1.60;1.50;;;;;;;7.98;71.42;94833.44;4969038;28;20042;-74
2021/10/23 23:17:02;;;;;;;2.03;1.83;;;;;;;7.93;71.51;94838.75;4971551;28;20057;-75
2021/10/23 23:19:28;;;;;;;2.15;1.73;;;;;;;7.80;71.52;94837.50;4966134;28;20073;-76
2021/10/23 23:21:54;;;;;;;1.80;1.55;;;;;;;7.87;72.11;94847.81;4964510;28;20038;-75
2021/10/23 23:24:19;;;;;;;2.92;1.67;;;;;;;7.82;71.61;94853.91;4965528;28;20097;-74
2021/10/23 23:26:45;;;;;;;2.05;1.65;;;;;;;7.93;71.88;94849.34;4964211;28;20505;-75
2021/10/23 23:29:10;;;;;;;3.95;2.03;;;;;;;7.60;71.44;94819.78;4968401;28;20125;-76
2021/10/23 23:31:35;;;;;;;4.03;1.80;;;;;;;7.85;71.25;94858.66;4958189;28;20038;-75
2021/10/23 23:34:01;;;;;;;2.70;1.95;;;;;;;7.97;71.64;94858.38;4971171;28;20065;-76
2021/10/23 23:36:26;;;;;;;2.70;2.40;;;;;;;7.82;71.21;94853.91;4965085;28;20566;-75
2021/10/23 23:38:52;;;;;;;3.45;2.22;;;;;;;7.97;71.29;94875.03;4964940;28;20038;-75
2021/10/23 23:41:20;;;;;;;3.13;2.33;;;;;;;7.97;70.67;94855.72;4959820;28;20047;-75
2021/10/23 23:43:45;;;;;;;3.08;2.78;;;;;;;8.03;70.27;94878.47;4966907;28;20101;-75
2021/10/23 23:46:11;;;;;;;2.47;2.25;;;;;;;8.01;71.07;94873.44;4969781;28;20042;-75
2021/10/23 23:48:36;;;;;;;3.00;2.70;;;;;;;8.01;70.15;94856.75;4968806;28;20868;-75
2021/10/23 23:51:02;;;;;;;3.95;2.30;;;;;;;7.81;70.29;94851.53;4968041;28;20081;-75
2021/10/23 23:53:27;;;;;;;4.03;2.83;;;;;;;7.78;69.99;94873.28;4967378;28;20702;-75
2021/10/23 23:55:52;;;;;;;2.90;2.22;;;;;;;7.49;71.16;94868.50;4964012;28;20159;-74
2021/10/23 23:58:18;;;;;;;2.83;2.30;;;;;;;7.62;71.04;94883.88;4961211;28;20070;-74
